createdAt,value
2019-02-19T00:00:33.903Z,77.69
2019-02-19T00:03:07.205Z,78.10
2019-02-19T00:05:40.493Z,78.64
2019-02-19T00:08:13.753Z,78.81
2019-02-19T00:10:47.070Z,80.23
2019-02-19T00:13:20.373Z,78.90
2019-02-19T00:15:53.683Z,79.00
2019-02-19T00:18:26.958Z,78.88
2019-02-19T00:21:00.258Z,79.30
2019-02-19T00:23:35.075Z,79.63
2019-02-19T00:26:13.146Z,79.88
2019-02-19T00:28:46.446Z,79.94
2019-02-19T00:31:19.741Z,79.77
2019-02-19T00:33:55.126Z,80.04
2019-02-19T00:36:28.419Z,80.77
2019-02-19T00:39:01.721Z,80.30
2019-02-19T00:41:35.026Z,80.54
2019-02-19T00:44:08.318Z,81.07
2019-02-19T00:46:41.614Z,80.77
2019-02-19T00:49:14.898Z,79.41
2019-02-19T00:51:48.198Z,77.24
2019-02-19T00:54:21.481Z,75.00
2019-02-19T00:56:54.784Z,73.52
2019-02-19T00:59:28.070Z,73.13
2019-02-19T01:02:01.386Z,73.46
2019-02-19T01:04:34.669Z,74.19
2019-02-19T01:07:08.015Z,74.65
2019-02-19T01:09:41.295Z,75.24
2019-02-19T01:12:14.674Z,75.54
2019-02-19T01:14:47.964Z,76.02
2019-02-19T01:17:21.244Z,76.48
2019-02-19T01:19:54.548Z,76.94
2019-02-19T01:22:27.842Z,77.03
2019-02-19T01:25:01.713Z,77.29
2019-02-19T01:27:34.990Z,77.03
2019-02-19T01:30:10.148Z,77.07
2019-02-19T01:32:43.428Z,77.49
2019-02-19T01:35:16.725Z,77.65
2019-02-19T01:37:50.014Z,78.29
2019-02-19T01:40:23.378Z,78.43
2019-02-19T01:42:57.718Z,78.49
2019-02-19T01:45:34.283Z,78.51
2019-02-19T01:48:07.751Z,77.77
2019-02-19T01:50:41.045Z,77.74
2019-02-19T01:53:14.158Z,77.80
2019-02-19T01:55:47.454Z,70.55
2019-02-19T01:58:21.723Z,67.25
2019-02-19T02:00:55.038Z,68.75
2019-02-19T02:03:28.320Z,67.21
2019-02-19T02:06:02.653Z,67.01
2019-02-19T02:08:35.930Z,69.48
2019-02-19T02:11:09.231Z,70.38
2019-02-19T02:13:44.062Z,72.85
2019-02-19T02:16:17.372Z,73.81
2019-02-19T02:18:50.657Z,74.13
2019-02-19T02:21:23.955Z,73.29
2019-02-19T02:23:57.218Z,74.00
2019-02-19T02:26:32.833Z,71.85
2019-02-19T02:29:06.108Z,72.34
2019-02-19T02:31:39.402Z,73.49
2019-02-19T02:34:14.200Z,73.96
2019-02-19T02:36:47.500Z,75.33
2019-02-19T02:39:21.441Z,75.70
2019-02-19T02:41:54.746Z,74.90
2019-02-19T02:44:29.138Z,69.81
2019-02-19T02:47:04.480Z,69.32
2019-02-19T02:49:37.757Z,68.70
2019-02-19T02:52:11.066Z,67.46
2019-02-19T02:54:44.325Z,66.45
2019-02-19T02:57:17.638Z,66.19
2019-02-19T02:59:50.915Z,66.02
2019-02-19T03:02:24.212Z,66.22
2019-02-19T03:04:57.494Z,66.92
2019-02-19T03:07:32.427Z,67.66
2019-02-19T03:10:06.485Z,68.11
2019-02-19T03:12:39.866Z,68.87
2019-02-19T03:15:13.512Z,69.70
2019-02-19T03:17:46.812Z,70.45
2019-02-19T03:20:20.086Z,71.34
2019-02-19T03:22:53.399Z,72.04
2019-02-19T03:25:26.687Z,72.24
2019-02-19T03:27:59.976Z,71.93
2019-02-19T03:30:33.280Z,71.39
2019-02-19T03:33:06.601Z,70.12
2019-02-19T03:35:40.160Z,70.38
2019-02-19T03:38:13.496Z,71.23
2019-02-19T03:40:46.738Z,70.88
2019-02-19T03:43:20.045Z,70.49
2019-02-19T03:45:53.331Z,69.73
2019-02-19T03:48:26.692Z,69.46
2019-02-19T03:50:59.989Z,69.67
2019-02-19T03:53:33.289Z,70.51
2019-02-19T03:56:06.631Z,71.53
2019-02-19T03:58:39.953Z,71.62
2019-02-19T04:01:13.274Z,72.23
2019-02-19T04:03:46.645Z,73.25
2019-02-19T04:06:19.911Z,73.97
2019-02-19T04:08:53.211Z,74.70
2019-02-19T04:11:26.506Z,75.10
2019-02-19T04:13:59.832Z,74.12
2019-02-19T04:16:33.112Z,73.71
2019-02-19T04:19:06.413Z,73.48
2019-02-19T04:21:39.692Z,71.95
2019-02-19T04:24:12.813Z,71.98
2019-02-19T04:26:46.102Z,73.47
2019-02-19T04:29:19.402Z,74.41
2019-02-19T04:31:52.690Z,75.28
2019-02-19T04:34:25.987Z,73.44
2019-02-19T04:36:59.314Z,72.04
2019-02-19T04:39:32.609Z,71.86
2019-02-19T04:42:05.885Z,72.12
2019-02-19T04:44:39.168Z,72.52
2019-02-19T04:47:12.453Z,73.82
2019-02-19T04:49:45.755Z,74.20
2019-02-19T04:52:18.877Z,74.99
2019-02-19T04:54:52.178Z,74.93
2019-02-19T04:57:26.028Z,74.97
2019-02-19T04:59:59.296Z,74.02
2019-02-19T05:02:32.613Z,72.54
2019-02-19T05:05:06.545Z,71.65
2019-02-19T05:07:39.841Z,71.66
2019-02-19T05:10:13.223Z,72.88
2019-02-19T05:12:46.532Z,73.48
2019-02-19T05:15:20.384Z,73.39
2019-02-19T05:17:53.652Z,73.72
2019-02-19T05:20:26.962Z,73.92
2019-02-19T05:23:00.228Z,71.64
2019-02-19T05:25:33.533Z,69.34
2019-02-19T05:28:08.030Z,68.78
2019-02-19T05:30:43.169Z,67.83
2019-02-19T05:33:16.722Z,67.55
2019-02-19T05:35:50.001Z,67.71
2019-02-19T05:38:23.303Z,67.59
2019-02-19T05:40:57.811Z,66.81
2019-02-19T05:43:31.098Z,66.95
2019-02-19T05:46:04.420Z,66.64
2019-02-19T05:48:37.713Z,66.77
2019-02-19T05:51:11.017Z,66.49
2019-02-19T05:53:45.936Z,66.40
2019-02-19T05:56:19.223Z,65.47
2019-02-19T05:58:52.516Z,65.69
2019-02-19T06:01:25.825Z,65.25
2019-02-19T06:03:59.220Z,65.47
2019-02-19T06:06:33.273Z,65.02
2019-02-19T06:09:06.630Z,64.70
2019-02-19T06:11:39.992Z,64.80
2019-02-19T06:14:13.385Z,64.67
2019-02-19T06:16:46.679Z,64.66
2019-02-19T06:19:21.291Z,64.37
2019-02-19T06:21:54.659Z,64.23
2019-02-19T06:24:27.983Z,64.03
2019-02-19T06:27:01.280Z,63.91
2019-02-19T06:29:34.566Z,63.77
2019-02-19T06:32:07.878Z,63.95
2019-02-19T06:34:41.207Z,63.84
2019-02-19T06:37:14.516Z,63.69
2019-02-19T06:39:47.811Z,63.84
2019-02-19T06:42:21.091Z,63.50
2019-02-19T06:44:54.403Z,63.26
2019-02-19T06:47:27.687Z,62.94
2019-02-19T06:50:00.987Z,62.87
2019-02-19T06:52:34.264Z,63.02
2019-02-19T06:55:08.250Z,62.49
2019-02-19T06:57:41.520Z,62.65
2019-02-19T07:00:14.895Z,62.70
2019-02-19T07:02:50.151Z,63.22
2019-02-19T07:05:25.032Z,63.33
2019-02-19T07:07:58.311Z,63.10
2019-02-19T07:10:31.603Z,63.43
2019-02-19T07:13:04.871Z,63.58
2019-02-19T07:15:38.433Z,63.85
2019-02-19T07:18:11.734Z,64.04
2019-02-19T07:20:44.998Z,64.18
2019-02-19T07:23:18.310Z,64.41
2019-02-19T07:25:51.604Z,64.56
2019-02-19T07:28:24.890Z,64.43
2019-02-19T07:30:58.256Z,64.64
2019-02-19T07:33:31.531Z,64.44
2019-02-19T07:36:04.904Z,64.45
2019-02-19T07:38:38.181Z,64.36
2019-02-19T07:41:11.481Z,63.91
2019-02-19T07:43:44.894Z,63.90
2019-02-19T07:46:18.224Z,63.86
2019-02-19T07:48:51.515Z,63.91
2019-02-19T07:51:24.815Z,64.05
2019-02-19T07:53:58.088Z,64.01
2019-02-19T07:56:31.375Z,64.07
2019-02-19T07:59:04.657Z,64.35
2019-02-19T08:01:37.938Z,64.57
2019-02-19T08:04:11.242Z,64.51
2019-02-19T08:06:44.534Z,64.81
2019-02-19T08:09:17.818Z,65.10
2019-02-19T08:11:52.642Z,65.55
2019-02-19T08:14:25.948Z,65.58
2019-02-19T08:16:59.291Z,65.73
2019-02-19T08:19:32.574Z,65.62
2019-02-19T08:22:05.865Z,65.86
2019-02-19T08:24:39.159Z,66.38
2019-02-19T08:27:12.448Z,65.68
2019-02-19T08:29:45.719Z,66.03
2019-02-19T08:32:19.000Z,66.38
2019-02-19T08:34:52.280Z,66.24
2019-02-19T08:37:25.566Z,66.94
2019-02-19T08:39:58.829Z,67.33
2019-02-19T08:42:32.125Z,67.42
2019-02-19T08:45:07.424Z,68.32
2019-02-19T08:47:42.857Z,67.62
2019-02-19T08:50:15.769Z,67.90
2019-02-19T08:52:49.068Z,69.81
2019-02-19T08:55:22.340Z,68.23
2019-02-19T08:57:55.637Z,68.35
2019-02-19T09:00:29.422Z,67.79
2019-02-19T09:03:02.740Z,68.99
2019-02-19T09:05:36.018Z,69.15
2019-02-19T09:08:09.388Z,69.09
2019-02-19T09:10:42.668Z,70.22
2019-02-19T09:13:15.968Z,69.59
2019-02-19T09:15:49.248Z,69.83
2019-02-19T09:18:24.108Z,71.77
2019-02-19T09:20:57.409Z,69.86
2019-02-19T09:23:30.739Z,70.67
2019-02-19T09:26:04.003Z,69.55
2019-02-19T09:28:37.303Z,70.55
2019-02-19T09:31:10.584Z,68.99
2019-02-19T09:33:43.910Z,68.97
2019-02-19T09:36:17.178Z,69.58
2019-02-19T09:38:50.499Z,68.84
2019-02-19T09:41:23.776Z,68.76
2019-02-19T09:43:57.066Z,67.88
2019-02-19T09:46:30.349Z,67.62
2019-02-19T09:49:03.650Z,68.38
2019-02-19T09:51:36.952Z,67.02
2019-02-19T09:54:10.274Z,66.74
2019-02-19T09:56:43.556Z,66.63
2019-02-19T09:59:16.833Z,66.77
2019-02-19T10:01:50.105Z,65.89
2019-02-19T10:04:23.397Z,66.81
2019-02-19T10:06:56.689Z,66.79
2019-02-19T10:09:29.979Z,66.92
2019-02-19T10:12:03.259Z,66.58
2019-02-19T10:14:36.563Z,68.81
2019-02-19T10:17:09.831Z,68.64
2019-02-19T10:19:43.130Z,69.55
2019-02-19T10:22:16.400Z,68.58
2019-02-19T10:24:49.695Z,69.41
2019-02-19T10:27:22.980Z,69.58
2019-02-19T10:29:56.262Z,70.00
2019-02-19T10:32:31.931Z,69.57
2019-02-19T10:35:06.816Z,69.33
2019-02-19T10:37:40.760Z,69.75
2019-02-19T10:40:18.919Z,70.92
2019-02-19T10:42:52.281Z,70.67
2019-02-19T10:45:27.230Z,70.88
2019-02-19T10:48:02.095Z,71.81
2019-02-19T10:50:35.360Z,72.24
2019-02-19T10:53:08.685Z,71.80
2019-02-19T10:55:42.512Z,71.58
2019-02-19T10:58:22.515Z,72.17
2019-02-19T11:00:51.945Z,72.84
2019-02-19T11:03:25.249Z,73.16
2019-02-19T11:05:58.558Z,73.79
2019-02-19T11:08:31.829Z,73.43
2019-02-19T11:11:05.125Z,73.71
2019-02-19T11:13:38.424Z,73.89
2019-02-19T11:16:11.721Z,74.26
2019-02-19T11:18:45.020Z,73.46
2019-02-19T11:21:20.010Z,72.82
2019-02-19T11:23:53.447Z,72.92
2019-02-19T11:26:26.751Z,71.59
2019-02-19T11:29:00.031Z,71.60
2019-02-19T11:31:33.331Z,72.80
2019-02-19T11:34:06.606Z,71.57
2019-02-19T11:36:39.883Z,70.53
2019-02-19T11:39:14.054Z,70.42
2019-02-19T11:41:47.371Z,69.26
2019-02-19T11:44:20.657Z,70.03
2019-02-19T11:46:53.973Z,70.16
2019-02-19T11:49:27.255Z,69.80
2019-02-19T11:52:00.807Z,69.28
2019-02-19T11:54:34.075Z,68.08
2019-02-19T11:57:07.384Z,66.83
2019-02-19T11:59:40.678Z,65.24
2019-02-19T12:02:15.644Z,66.62
2019-02-19T12:04:48.944Z,64.60
2019-02-19T12:07:22.311Z,63.69
2019-02-19T12:09:55.655Z,65.56
2019-02-19T12:12:28.892Z,64.05
2019-02-19T12:15:02.211Z,64.14
2019-02-19T12:17:35.497Z,66.41
2019-02-19T12:20:13.265Z,65.06
2019-02-19T12:22:46.610Z,65.97
2019-02-19T12:25:19.921Z,66.11
2019-02-19T12:27:53.266Z,66.00
2019-02-19T12:30:26.554Z,64.01
2019-02-19T12:32:59.838Z,65.51
2019-02-19T12:35:33.133Z,63.09
2019-02-19T12:38:06.419Z,62.79
2019-02-19T12:40:39.726Z,61.09
2019-02-19T12:43:13.360Z,56.29
2019-02-19T12:45:46.779Z,59.03
2019-02-19T12:48:20.069Z,52.57
2019-02-19T12:50:53.832Z,51.37
2019-02-19T12:53:27.113Z,53.93
2019-02-19T12:56:00.397Z,50.14
2019-02-19T12:58:33.659Z,50.76
2019-02-19T13:01:08.627Z,52.52
2019-02-19T13:03:41.908Z,54.58
2019-02-19T13:06:15.202Z,53.22
2019-02-19T13:08:48.467Z,47.29
2019-02-19T13:11:21.786Z,48.34
2019-02-19T13:13:55.171Z,46.47
2019-02-19T13:16:28.481Z,46.83
2019-02-19T13:19:03.732Z,46.24
2019-02-19T13:21:37.167Z,43.96
2019-02-19T13:24:10.450Z,44.38
2019-02-19T13:26:43.766Z,46.28
2019-02-19T13:29:17.047Z,44.17
2019-02-19T13:31:50.358Z,42.28
2019-02-19T13:34:23.670Z,45.21
2019-02-19T13:36:56.960Z,42.88
2019-02-19T13:39:30.266Z,44.46
2019-02-19T13:42:03.561Z,41.27
2019-02-19T13:44:36.845Z,41.68
2019-02-19T13:47:10.394Z,42.58
2019-02-19T13:49:44.933Z,43.01
2019-02-19T13:52:22.546Z,40.47
2019-02-19T13:54:55.298Z,40.67
2019-02-19T13:57:28.572Z,42.21
2019-02-19T14:00:01.877Z,41.60
2019-02-19T14:02:35.157Z,45.61
2019-02-19T14:05:08.808Z,47.86
2019-02-19T14:07:42.111Z,51.70
2019-02-19T14:10:15.410Z,49.52
2019-02-19T14:12:48.764Z,51.32
2019-02-19T14:15:42.108Z,47.70
2019-02-19T14:18:17.048Z,50.44
2019-02-19T14:20:51.981Z,46.44
2019-02-19T14:23:43.336Z,45.05
2019-02-19T14:26:18.235Z,42.43
2019-02-19T14:29:02.377Z,47.43
2019-02-19T14:31:48.974Z,46.95
2019-02-19T14:34:29.722Z,50.93
2019-02-19T14:37:13.438Z,51.89
2019-02-19T14:39:50.826Z,49.64
2019-02-19T14:42:41.642Z,45.18
2019-02-19T14:45:28.523Z,46.29
2019-02-19T14:48:09.163Z,52.01
2019-02-19T14:50:47.060Z,49.76
2019-02-19T14:53:34.132Z,51.48
2019-02-19T14:56:12.149Z,51.48
2019-02-19T14:59:03.213Z,53.47
2019-02-19T15:01:54.310Z,47.77
2019-02-19T15:04:31.926Z,52.89
2019-02-19T15:07:09.770Z,54.16
2019-02-19T15:09:47.421Z,54.35
2019-02-19T15:12:28.383Z,54.99
2019-02-19T15:15:04.649Z,54.44
2019-02-19T15:17:39.566Z,52.72
2019-02-19T15:20:30.938Z,45.65
2019-02-19T15:23:12.094Z,41.06
2019-02-19T15:25:49.709Z,43.10
2019-02-19T15:28:36.590Z,43.10
2019-02-19T15:31:26.533Z,44.63
2019-02-19T15:34:07.172Z,43.74
2019-02-19T15:36:58.556Z,44.68
2019-02-19T15:39:36.168Z,45.30
2019-02-19T15:42:13.762Z,49.10
2019-02-19T15:44:48.698Z,51.29
2019-02-19T15:47:38.679Z,51.29
2019-02-19T15:50:29.699Z,51.95
2019-02-19T15:53:07.423Z,52.45
2019-02-19T15:55:58.787Z,52.89
2019-02-19T15:58:33.795Z,53.08
2019-02-19T16:01:26.454Z,53.62
2019-02-19T16:04:04.386Z,53.61
2019-02-19T16:06:55.213Z,53.90
2019-02-19T16:09:41.959Z,53.39
2019-02-19T16:12:16.899Z,52.84
2019-02-19T16:15:06.690Z,53.01
2019-02-19T16:17:47.538Z,52.94
2019-02-19T16:20:28.439Z,52.67
2019-02-19T16:23:06.379Z,52.68
2019-02-19T16:25:53.152Z,52.96
2019-02-19T16:28:34.264Z,53.21
2019-02-19T16:31:09.176Z,52.83
2019-02-19T16:33:49.891Z,53.22
2019-02-19T16:36:24.806Z,53.57
2019-02-19T16:39:17.504Z,53.92
2019-02-19T16:41:52.440Z,54.88
2019-02-19T16:44:30.396Z,55.17
2019-02-19T16:47:14.216Z,55.02
2019-02-19T16:50:08.067Z,55.54
2019-02-19T16:52:42.406Z,55.87
2019-02-19T16:55:20.180Z,56.40
2019-02-19T16:57:55.119Z,56.83
2019-02-19T17:00:39.039Z,57.35
2019-02-19T17:03:22.818Z,58.08
2019-02-19T17:06:03.528Z,58.60
2019-02-19T17:08:50.270Z,59.48
2019-02-19T17:11:34.768Z,60.15
2019-02-19T17:14:33.679Z,61.06
2019-02-19T17:17:17.720Z,61.66
2019-02-19T17:19:55.027Z,60.62
2019-02-19T17:22:30.045Z,60.22
2019-02-19T17:25:08.397Z,60.02
2019-02-19T17:27:43.326Z,60.39
2019-02-19T17:30:21.005Z,60.43
2019-02-19T17:33:04.624Z,61.00
2019-02-19T17:35:48.514Z,61.66
2019-02-19T17:38:35.160Z,62.28
2019-02-19T17:41:12.846Z,63.45
2019-02-19T17:43:56.863Z,63.38
2019-02-19T17:46:44.044Z,62.92
2019-02-19T17:49:30.947Z,62.92
2019-02-19T17:52:21.801Z,62.94
2019-02-19T17:54:56.715Z,63.59
2019-02-19T17:57:37.613Z,63.09
2019-02-19T18:00:25.285Z,63.34
2019-02-19T18:03:09.390Z,63.87
2019-02-19T18:06:00.438Z,63.90
2019-02-19T18:08:41.138Z,64.42
2019-02-19T18:11:18.520Z,64.87
2019-02-19T18:13:56.517Z,66.15
2019-02-19T18:16:40.302Z,66.97
2019-02-19T18:19:13.614Z,67.46
2019-02-19T18:21:46.904Z,67.32
2019-02-19T18:24:21.552Z,67.54
2019-02-19T18:26:55.013Z,68.52
2019-02-19T18:29:28.332Z,69.60
2019-02-19T18:32:01.609Z,68.91
2019-02-19T18:34:34.941Z,67.89
2019-02-19T18:37:08.202Z,69.24
2019-02-19T18:39:41.609Z,69.96
2019-02-19T18:42:14.893Z,71.14
2019-02-19T18:44:48.225Z,70.37
2019-02-19T18:47:21.504Z,69.94
2019-02-19T18:49:55.882Z,69.80
2019-02-19T18:52:29.147Z,69.61
2019-02-19T18:55:02.527Z,69.51
2019-02-19T18:57:35.808Z,69.76
2019-02-19T19:00:13.365Z,70.21
2019-02-19T19:02:46.724Z,69.65
2019-02-19T19:05:20.145Z,69.05
2019-02-19T19:07:53.406Z,68.19
2019-02-19T19:10:26.724Z,67.46
2019-02-19T19:13:00.171Z,66.44
2019-02-19T19:15:33.562Z,66.85
2019-02-19T19:18:06.947Z,67.47
2019-02-19T19:20:40.617Z,68.44
2019-02-19T19:23:13.916Z,68.62
2019-02-19T19:25:47.199Z,69.59
2019-02-19T19:28:20.492Z,69.89
2019-02-19T19:30:53.819Z,71.10
2019-02-19T19:33:27.135Z,71.16
2019-02-19T19:36:00.521Z,71.69
2019-02-19T19:38:33.843Z,71.77
2019-02-19T19:41:08.760Z,72.55
2019-02-19T19:43:42.024Z,72.98
2019-02-19T19:46:15.387Z,72.60
2019-02-19T19:48:48.660Z,72.49
2019-02-19T19:51:22.101Z,72.96
2019-02-19T19:53:55.395Z,73.06
2019-02-19T19:56:28.829Z,73.43
2019-02-19T19:59:02.126Z,73.74
2019-02-19T20:01:35.535Z,74.25
2019-02-19T20:04:08.912Z,75.90
2019-02-19T20:06:42.429Z,76.78
2019-02-19T20:09:16.009Z,77.65
2019-02-19T20:11:49.316Z,77.76
2019-02-19T20:14:22.743Z,77.35
2019-02-19T20:16:56.070Z,78.80
2019-02-19T20:19:29.404Z,77.82
2019-02-19T20:22:03.170Z,78.21
2019-02-19T20:24:38.019Z,78.72
2019-02-19T20:27:11.347Z,78.22
2019-02-19T20:29:45.639Z,78.66
2019-02-19T20:32:18.942Z,79.12
2019-02-19T20:34:52.611Z,77.92
2019-02-19T20:37:26.437Z,77.91
2019-02-19T20:39:59.729Z,76.63
2019-02-19T20:42:33.042Z,77.33
2019-02-19T20:45:13.094Z,77.78
2019-02-19T20:47:46.390Z,77.72
2019-02-19T20:50:19.711Z,79.21
2019-02-19T20:52:53.003Z,78.54
2019-02-19T20:55:26.785Z,78.67
2019-02-19T20:58:00.087Z,79.27
2019-02-19T21:00:33.572Z,79.51
2019-02-19T21:03:06.907Z,79.70
2019-02-19T21:05:40.244Z,80.05
2019-02-19T21:08:13.519Z,79.70
2019-02-19T21:10:47.180Z,80.04
2019-02-19T21:13:20.583Z,80.70
2019-02-19T21:15:53.910Z,80.30
2019-02-19T21:18:27.185Z,80.31
2019-02-19T21:21:00.475Z,80.51
2019-02-19T21:23:33.784Z,80.75
2019-02-19T21:26:07.160Z,80.83
2019-02-19T21:28:40.466Z,80.79
2019-02-19T21:31:13.785Z,80.75
2019-02-19T21:33:47.105Z,80.44
2019-02-19T21:36:20.245Z,80.79
2019-02-19T21:38:53.522Z,81.06
2019-02-19T21:41:26.820Z,81.49
2019-02-19T21:44:00.125Z,81.89
2019-02-19T21:46:33.406Z,82.32
2019-02-19T21:49:07.533Z,82.22
2019-02-19T21:51:40.854Z,82.39
2019-02-19T21:54:14.155Z,82.60
2019-02-19T21:56:47.463Z,82.28
2019-02-19T21:59:20.766Z,83.72
2019-02-19T22:01:54.147Z,84.18
2019-02-19T22:04:27.452Z,85.56
2019-02-19T22:07:01.373Z,85.52
2019-02-19T22:09:34.670Z,85.54
2019-02-19T22:12:09.187Z,86.00
2019-02-19T22:14:42.477Z,87.63
2019-02-19T22:17:15.800Z,85.32
2019-02-19T22:19:49.070Z,86.11
2019-02-19T22:22:22.379Z,86.61
2019-02-19T22:24:55.672Z,85.07
2019-02-19T22:27:28.962Z,86.16
2019-02-19T22:30:02.268Z,87.13
2019-02-19T22:32:35.593Z,86.10
2019-02-19T22:35:08.946Z,86.76
2019-02-19T22:37:42.259Z,86.93
2019-02-19T22:40:15.525Z,86.88
2019-02-19T22:42:48.830Z,87.03
2019-02-19T22:45:22.104Z,87.61
2019-02-19T22:47:55.427Z,88.76
2019-02-19T22:50:28.715Z,88.32
2019-02-19T22:53:03.665Z,86.64
2019-02-19T22:55:51.713Z,86.30
2019-02-19T22:58:25.236Z,87.12
2019-02-19T23:01:03.563Z,87.84
2019-02-19T23:03:37.735Z,88.14
2019-02-19T23:06:11.027Z,88.59
2019-02-19T23:08:44.342Z,86.57
2019-02-19T23:11:18.208Z,86.79
2019-02-19T23:13:51.483Z,87.02
2019-02-19T23:16:24.760Z,88.41
2019-02-19T23:18:58.078Z,87.93
2019-02-19T23:21:32.579Z,87.98
2019-02-19T23:24:05.861Z,87.48
2019-02-19T23:26:39.133Z,88.61
2019-02-19T23:29:12.430Z,88.43
2019-02-19T23:31:45.704Z,88.11
2019-02-19T23:34:18.994Z,89.10
2019-02-19T23:36:53.910Z,89.60
2019-02-19T23:39:27.218Z,88.72
2019-02-19T23:42:00.489Z,89.18
2019-02-19T23:44:33.767Z,89.54
2019-02-19T23:47:07.113Z,90.73
2019-02-19T23:49:40.412Z,90.01
2019-02-19T23:52:13.694Z,89.06
2019-02-19T23:54:46.999Z,89.47
2019-02-19T23:57:20.273Z,89.83
2019-02-19T23:59:53.594Z,89.91
